sensor_id;sensor_type;location;lat;lon;timestamp;P1;durP1;ratioP1;P2;durP2;ratioP2
20397;SDS011;10358;49.590;11.030;2023-08-07T00:02:01;1.00;;;0.90;;
20397;SDS011;10358;49.590;11.030;2023-08-07T00:04:28;1.80;;;0.70;;
20397;SDS011;10358;49.590;11.030;2023-08-07T00:06:53;1.30;;;0.80;;
20397;SDS011;10358;49.590;11.030;2023-08-07T00:09:19;1.37;;;0.80;;
20397;SDS011;10358;49.590;11.030;2023-08-07T00:11:44;3.30;;;0.70;;
20397;SDS011;10358;49.590;11.030;2023-08-07T00:14:10;0.90;;;0.63;;
20397;SDS011;10358;49.590;11.030;2023-08-07T00:16:35;0.80;;;0.50;;
20397;SDS011;10358;49.590;11.030;2023-08-07T00:19:02;1.00;;;0.80;;
20397;SDS011;10358;49.590;11.030;2023-08-07T00:21:28;2.27;;;0.80;;
20397;SDS011;10358;49.590;11.030;2023-08-07T00:23:53;3.70;;;0.70;;
20397;SDS011;10358;49.590;11.030;2023-08-07T00:26:20;2.70;;;0.80;;
20397;SDS011;10358;49.590;11.030;2023-08-07T00:28:46;1.47;;;0.67;;
20397;SDS011;10358;49.590;11.030;2023-08-07T00:31:11;1.73;;;0.70;;
20397;SDS011;10358;49.590;11.030;2023-08-07T00:33:37;4.83;;;0.60;;
20397;SDS011;10358;49.590;11.030;2023-08-07T00:36:03;1.20;;;0.70;;
20397;SDS011;10358;49.590;11.030;2023-08-07T00:38:29;4.83;;;0.80;;
20397;SDS011;10358;49.590;11.030;2023-08-07T00:40:54;1.73;;;0.80;;
20397;SDS011;10358;49.590;11.030;2023-08-07T00:43:20;3.47;;;0.80;;
20397;SDS011;10358;49.590;11.030;2023-08-07T00:45:46;7.93;;;1.00;;
20397;SDS011;10358;49.590;11.030;2023-08-07T00:48:12;1.20;;;0.80;;
20397;SDS011;10358;49.590;11.030;2023-08-07T00:50:40;2.77;;;0.87;;
20397;SDS011;10358;49.590;11.030;2023-08-07T00:53:07;3.57;;;1.00;;
20397;SDS011;10358;49.590;11.030;2023-08-07T00:55:33;1.20;;;0.80;;
20397;SDS011;10358;49.590;11.030;2023-08-07T00:57:59;0.93;;;0.70;;
20397;SDS011;10358;49.590;11.030;2023-08-07T01:00:26;1.17;;;0.77;;
20397;SDS011;10358;49.590;11.030;2023-08-07T01:02:54;1.63;;;0.93;;
20397;SDS011;10358;49.590;11.030;2023-08-07T01:05:21;1.50;;;0.70;;
20397;SDS011;10358;49.590;11.030;2023-08-07T01:07:48;3.10;;;0.80;;
20397;SDS011;10358;49.590;11.030;2023-08-07T01:10:16;1.33;;;0.60;;
20397;SDS011;10358;49.590;11.030;2023-08-07T01:12:48;2.43;;;1.00;;
20397;SDS011;10358;49.590;11.030;2023-08-07T01:15:25;2.67;;;0.90;;
20397;SDS011;10358;49.590;11.030;2023-08-07T01:17:55;2.47;;;0.80;;
20397;SDS011;10358;49.590;11.030;2023-08-07T01:20:22;2.33;;;0.80;;
20397;SDS011;10358;49.590;11.030;2023-08-07T01:22:48;2.87;;;1.10;;
20397;SDS011;10358;49.590;11.030;2023-08-07T01:25:13;2.80;;;1.00;;
20397;SDS011;10358;49.590;11.030;2023-08-07T01:27:44;1.87;;;1.00;;
20397;SDS011;10358;49.590;11.030;2023-08-07T01:30:23;2.93;;;1.10;;
20397;SDS011;10358;49.590;11.030;2023-08-07T01:35:36;2.13;;;1.30;;
20397;SDS011;10358;49.590;11.030;2023-08-07T01:38:08;4.60;;;1.20;;
20397;SDS011;10358;49.590;11.030;2023-08-07T01:40:35;2.33;;;1.03;;
20397;SDS011;10358;49.590;11.030;2023-08-07T01:43:03;4.27;;;1.20;;
20397;SDS011;10358;49.590;11.030;2023-08-07T01:45:29;3.23;;;1.10;;
20397;SDS011;10358;49.590;11.030;2023-08-07T01:47:55;7.20;;;1.23;;
20397;SDS011;10358;49.590;11.030;2023-08-07T01:50:21;4.37;;;1.00;;
20397;SDS011;10358;49.590;11.030;2023-08-07T01:52:47;3.93;;;1.30;;
20397;SDS011;10358;49.590;11.030;2023-08-07T01:55:17;3.27;;;0.87;;
20397;SDS011;10358;49.590;11.030;2023-08-07T01:57:43;2.97;;;1.17;;
20397;SDS011;10358;49.590;11.030;2023-08-07T02:00:09;6.23;;;1.20;;
20397;SDS011;10358;49.590;11.030;2023-08-07T02:02:36;2.97;;;1.03;;
20397;SDS011;10358;49.590;11.030;2023-08-07T02:05:02;2.17;;;1.03;;
20397;SDS011;10358;49.590;11.030;2023-08-07T02:07:28;5.33;;;1.10;;
20397;SDS011;10358;49.590;11.030;2023-08-07T02:09:54;3.13;;;0.90;;
20397;SDS011;10358;49.590;11.030;2023-08-07T02:12:20;2.50;;;1.10;;
20397;SDS011;10358;49.590;11.030;2023-08-07T02:14:45;4.03;;;1.13;;
20397;SDS011;10358;49.590;11.030;2023-08-07T02:17:11;3.93;;;1.00;;
20397;SDS011;10358;49.590;11.030;2023-08-07T02:19:36;2.77;;;1.17;;
20397;SDS011;10358;49.590;11.030;2023-08-07T02:22:02;1.83;;;1.03;;
20397;SDS011;10358;49.590;11.030;2023-08-07T02:24:28;3.90;;;1.17;;
20397;SDS011;10358;49.590;11.030;2023-08-07T02:26:54;2.57;;;1.43;;
20397;SDS011;10358;49.590;11.030;2023-08-07T02:29:19;5.07;;;1.20;;
20397;SDS011;10358;49.590;11.030;2023-08-07T02:31:45;4.50;;;1.00;;
20397;SDS011;10358;49.590;11.030;2023-08-07T02:34:10;0.70;;;0.70;;
20397;SDS011;10358;49.590;11.030;2023-08-07T02:36:36;1.67;;;0.90;;
20397;SDS011;10358;49.590;11.030;2023-08-07T02:39:01;2.53;;;1.50;;
20397;SDS011;10358;49.590;11.030;2023-08-07T02:41:27;4.40;;;1.00;;
20397;SDS011;10358;49.590;11.030;2023-08-07T02:43:53;3.40;;;1.10;;
20397;SDS011;10358;49.590;11.030;2023-08-07T02:46:18;2.57;;;1.20;;
20397;SDS011;10358;49.590;11.030;2023-08-07T02:48:44;2.10;;;1.10;;
20397;SDS011;10358;49.590;11.030;2023-08-07T02:51:09;1.73;;;1.03;;
20397;SDS011;10358;49.590;11.030;2023-08-07T02:53:35;2.07;;;1.10;;
20397;SDS011;10358;49.590;11.030;2023-08-07T02:56:01;1.13;;;0.90;;
20397;SDS011;10358;49.590;11.030;2023-08-07T02:58:26;2.50;;;1.10;;
20397;SDS011;10358;49.590;11.030;2023-08-07T03:00:52;2.38;;;1.20;;
20397;SDS011;10358;49.590;11.030;2023-08-07T03:03:18;3.50;;;1.30;;
20397;SDS011;10358;49.590;11.030;2023-08-07T03:05:48;1.80;;;1.50;;
20397;SDS011;10358;49.590;11.030;2023-08-07T03:08:14;2.73;;;1.20;;
20397;SDS011;10358;49.590;11.030;2023-08-07T03:10:40;2.47;;;1.30;;
20397;SDS011;10358;49.590;11.030;2023-08-07T03:13:06;2.63;;;1.17;;
20397;SDS011;10358;49.590;11.030;2023-08-07T03:15:32;3.70;;;1.20;;
20397;SDS011;10358;49.590;11.030;2023-08-07T03:17:58;2.27;;;1.10;;
20397;SDS011;10358;49.590;11.030;2023-08-07T03:20:24;3.93;;;1.63;;
20397;SDS011;10358;49.590;11.030;2023-08-07T03:22:50;3.10;;;1.50;;
20397;SDS011;10358;49.590;11.030;2023-08-07T03:25:17;2.50;;;1.30;;
20397;SDS011;10358;49.590;11.030;2023-08-07T03:27:43;4.97;;;1.53;;
20397;SDS011;10358;49.590;11.030;2023-08-07T03:30:09;4.40;;;1.40;;
20397;SDS011;10358;49.590;11.030;2023-08-07T03:32:35;3.23;;;1.40;;
20397;SDS011;10358;49.590;11.030;2023-08-07T03:35:01;5.27;;;1.83;;
20397;SDS011;10358;49.590;11.030;2023-08-07T03:37:27;3.03;;;1.73;;
20397;SDS011;10358;49.590;11.030;2023-08-07T03:39:53;4.70;;;1.67;;
20397;SDS011;10358;49.590;11.030;2023-08-07T03:42:19;3.83;;;1.70;;
20397;SDS011;10358;49.590;11.030;2023-08-07T03:44:45;4.50;;;1.60;;
20397;SDS011;10358;49.590;11.030;2023-08-07T03:47:11;5.40;;;1.63;;
20397;SDS011;10358;49.590;11.030;2023-08-07T03:49:37;3.63;;;1.60;;
20397;SDS011;10358;49.590;11.030;2023-08-07T03:52:03;3.67;;;1.67;;
20397;SDS011;10358;49.590;11.030;2023-08-07T03:54:29;3.50;;;1.90;;
20397;SDS011;10358;49.590;11.030;2023-08-07T03:56:55;7.63;;;1.90;;
20397;SDS011;10358;49.590;11.030;2023-08-07T03:59:21;4.23;;;2.07;;
20397;SDS011;10358;49.590;11.030;2023-08-07T04:01:47;2.53;;;1.70;;
20397;SDS011;10358;49.590;11.030;2023-08-07T04:04:13;3.90;;;2.00;;
20397;SDS011;10358;49.590;11.030;2023-08-07T04:06:39;4.00;;;2.00;;
20397;SDS011;10358;49.590;11.030;2023-08-07T04:09:05;3.80;;;1.83;;
20397;SDS011;10358;49.590;11.030;2023-08-07T04:11:31;4.77;;;1.87;;
20397;SDS011;10358;49.590;11.030;2023-08-07T04:13:58;7.23;;;2.20;;
20397;SDS011;10358;49.590;11.030;2023-08-07T04:16:24;8.70;;;2.10;;
20397;SDS011;10358;49.590;11.030;2023-08-07T04:18:50;5.50;;;2.30;;
20397;SDS011;10358;49.590;11.030;2023-08-07T04:21:16;5.83;;;2.37;;
20397;SDS011;10358;49.590;11.030;2023-08-07T04:23:43;8.37;;;2.40;;
20397;SDS011;10358;49.590;11.030;2023-08-07T04:26:09;2.83;;;1.90;;
20397;SDS011;10358;49.590;11.030;2023-08-07T04:28:35;9.13;;;2.40;;
20397;SDS011;10358;49.590;11.030;2023-08-07T04:31:00;7.67;;;2.30;;
20397;SDS011;10358;49.590;11.030;2023-08-07T04:33:27;6.60;;;2.20;;
20397;SDS011;10358;49.590;11.030;2023-08-07T04:35:54;7.87;;;2.03;;
20397;SDS011;10358;49.590;11.030;2023-08-07T04:38:20;9.37;;;2.33;;
20397;SDS011;10358;49.590;11.030;2023-08-07T04:40:49;5.27;;;2.67;;
20397;SDS011;10358;49.590;11.030;2023-08-07T04:43:16;6.43;;;2.00;;
20397;SDS011;10358;49.590;11.030;2023-08-07T04:45:42;6.93;;;2.30;;
20397;SDS011;10358;49.590;11.030;2023-08-07T04:48:10;4.67;;;2.47;;
20397;SDS011;10358;49.590;11.030;2023-08-07T04:50:36;6.83;;;2.67;;
20397;SDS011;10358;49.590;11.030;2023-08-07T04:53:02;7.93;;;2.70;;
20397;SDS011;10358;49.590;11.030;2023-08-07T04:55:28;5.97;;;2.60;;
20397;SDS011;10358;49.590;11.030;2023-08-07T04:57:54;5.13;;;2.70;;
20397;SDS011;10358;49.590;11.030;2023-08-07T05:00:21;9.67;;;3.07;;
20397;SDS011;10358;49.590;11.030;2023-08-07T05:02:47;9.80;;;2.93;;
20397;SDS011;10358;49.590;11.030;2023-08-07T05:05:13;6.53;;;2.70;;
20397;SDS011;10358;49.590;11.030;2023-08-07T05:07:40;6.40;;;2.90;;
20397;SDS011;10358;49.590;11.030;2023-08-07T05:10:06;8.27;;;2.67;;
20397;SDS011;10358;49.590;11.030;2023-08-07T05:12:32;10.60;;;3.73;;
20397;SDS011;10358;49.590;11.030;2023-08-07T05:14:58;10.67;;;3.20;;
20397;SDS011;10358;49.590;11.030;2023-08-07T05:17:25;10.77;;;3.57;;
20397;SDS011;10358;49.590;11.030;2023-08-07T05:19:51;8.03;;;3.07;;
20397;SDS011;10358;49.590;11.030;2023-08-07T05:22:17;8.87;;;3.27;;
20397;SDS011;10358;49.590;11.030;2023-08-07T05:24:43;10.80;;;3.47;;
20397;SDS011;10358;49.590;11.030;2023-08-07T05:27:10;5.67;;;3.33;;
20397;SDS011;10358;49.590;11.030;2023-08-07T05:29:36;12.40;;;3.43;;
20397;SDS011;10358;49.590;11.030;2023-08-07T05:32:30;11.00;;;3.17;;
20397;SDS011;10358;49.590;11.030;2023-08-07T05:34:57;12.30;;;3.97;;
20397;SDS011;10358;49.590;11.030;2023-08-07T05:37:22;6.77;;;3.50;;
20397;SDS011;10358;49.590;11.030;2023-08-07T05:39:48;10.27;;;3.27;;
20397;SDS011;10358;49.590;11.030;2023-08-07T05:42:14;10.40;;;3.50;;
20397;SDS011;10358;49.590;11.030;2023-08-07T05:44:39;11.90;;;3.43;;
20397;SDS011;10358;49.590;11.030;2023-08-07T05:47:05;14.27;;;3.70;;
20397;SDS011;10358;49.590;11.030;2023-08-07T05:49:31;9.80;;;4.20;;
20397;SDS011;10358;49.590;11.030;2023-08-07T05:51:56;12.53;;;3.93;;
20397;SDS011;10358;49.590;11.030;2023-08-07T05:54:22;7.37;;;3.10;;
20397;SDS011;10358;49.590;11.030;2023-08-07T05:56:47;7.47;;;3.17;;
20397;SDS011;10358;49.590;11.030;2023-08-07T05:59:13;7.63;;;3.13;;
20397;SDS011;10358;49.590;11.030;2023-08-07T06:01:39;7.50;;;3.50;;
20397;SDS011;10358;49.590;11.030;2023-08-07T06:04:05;10.03;;;3.80;;
20397;SDS011;10358;49.590;11.030;2023-08-07T06:06:31;8.27;;;3.40;;
20397;SDS011;10358;49.590;11.030;2023-08-07T06:08:59;5.63;;;3.10;;
20397;SDS011;10358;49.590;11.030;2023-08-07T06:11:25;6.30;;;2.90;;
20397;SDS011;10358;49.590;11.030;2023-08-07T06:13:50;10.50;;;3.50;;
20397;SDS011;10358;49.590;11.030;2023-08-07T06:16:16;6.77;;;3.27;;
20397;SDS011;10358;49.590;11.030;2023-08-07T06:18:42;11.83;;;3.13;;
20397;SDS011;10358;49.590;11.030;2023-08-07T06:21:08;5.87;;;2.90;;
20397;SDS011;10358;49.590;11.030;2023-08-07T06:23:35;9.30;;;3.13;;
20397;SDS011;10358;49.590;11.030;2023-08-07T06:26:01;12.00;;;3.50;;
20397;SDS011;10358;49.590;11.030;2023-08-07T06:28:32;7.80;;;3.30;;
20397;SDS011;10358;49.590;11.030;2023-08-07T06:31:05;5.40;;;3.90;;
20397;SDS011;10358;49.590;11.030;2023-08-07T06:33:32;9.33;;;3.13;;
20397;SDS011;10358;49.590;11.030;2023-08-07T06:35:58;10.77;;;3.00;;
20397;SDS011;10358;49.590;11.030;2023-08-07T06:38:24;6.50;;;2.90;;
20397;SDS011;10358;49.590;11.030;2023-08-07T06:40:50;8.10;;;3.53;;
20397;SDS011;10358;49.590;11.030;2023-08-07T06:43:15;5.37;;;3.23;;
20397;SDS011;10358;49.590;11.030;2023-08-07T06:45:41;8.63;;;3.03;;
20397;SDS011;10358;49.590;11.030;2023-08-07T06:48:06;4.77;;;2.83;;
20397;SDS011;10358;49.590;11.030;2023-08-07T06:50:32;10.63;;;3.70;;
20397;SDS011;10358;49.590;11.030;2023-08-07T06:52:57;10.00;;;3.23;;
20397;SDS011;10358;49.590;11.030;2023-08-07T06:55:23;9.90;;;3.50;;
20397;SDS011;10358;49.590;11.030;2023-08-07T06:57:49;9.10;;;3.60;;
20397;SDS011;10358;49.590;11.030;2023-08-07T07:00:15;8.67;;;3.13;;
20397;SDS011;10358;49.590;11.030;2023-08-07T07:02:41;9.03;;;3.13;;
20397;SDS011;10358;49.590;11.030;2023-08-07T07:05:06;11.80;;;3.10;;
20397;SDS011;10358;49.590;11.030;2023-08-07T07:07:32;8.47;;;3.17;;
20397;SDS011;10358;49.590;11.030;2023-08-07T07:09:57;8.00;;;3.00;;
20397;SDS011;10358;49.590;11.030;2023-08-07T07:12:25;9.10;;;2.90;;
20397;SDS011;10358;49.590;11.030;2023-08-07T07:14:51;11.33;;;3.17;;
20397;SDS011;10358;49.590;11.030;2023-08-07T07:17:17;9.40;;;3.13;;
20397;SDS011;10358;49.590;11.030;2023-08-07T07:19:43;8.90;;;3.23;;
20397;SDS011;10358;49.590;11.030;2023-08-07T07:22:08;10.47;;;3.43;;
20397;SDS011;10358;49.590;11.030;2023-08-07T07:24:34;6.77;;;3.07;;
20397;SDS011;10358;49.590;11.030;2023-08-07T07:26:59;6.40;;;2.70;;
20397;SDS011;10358;49.590;11.030;2023-08-07T07:29:25;7.27;;;2.83;;
20397;SDS011;10358;49.590;11.030;2023-08-07T07:31:50;14.53;;;3.77;;
20397;SDS011;10358;49.590;11.030;2023-08-07T07:34:16;9.20;;;3.20;;
20397;SDS011;10358;49.590;11.030;2023-08-07T07:36:42;11.20;;;3.27;;
20397;SDS011;10358;49.590;11.030;2023-08-07T07:39:07;7.07;;;2.93;;
20397;SDS011;10358;49.590;11.030;2023-08-07T07:41:34;8.57;;;3.43;;
20397;SDS011;10358;49.590;11.030;2023-08-07T07:44:00;8.40;;;3.47;;
20397;SDS011;10358;49.590;11.030;2023-08-07T07:46:27;9.07;;;3.40;;
20397;SDS011;10358;49.590;11.030;2023-08-07T07:48:53;9.37;;;3.00;;
20397;SDS011;10358;49.590;11.030;2023-08-07T07:51:19;8.83;;;3.40;;
20397;SDS011;10358;49.590;11.030;2023-08-07T07:53:44;4.63;;;3.10;;
20397;SDS011;10358;49.590;11.030;2023-08-07T07:56:10;8.00;;;2.87;;
20397;SDS011;10358;49.590;11.030;2023-08-07T07:58:35;6.37;;;3.20;;
20397;SDS011;10358;49.590;11.030;2023-08-07T08:01:01;8.00;;;3.10;;
20397;SDS011;10358;49.590;11.030;2023-08-07T08:03:26;11.57;;;3.40;;
20397;SDS011;10358;49.590;11.030;2023-08-07T08:05:52;10.33;;;3.37;;
20397;SDS011;10358;49.590;11.030;2023-08-07T08:08:18;11.23;;;3.47;;
20397;SDS011;10358;49.590;11.030;2023-08-07T08:10:45;10.47;;;3.63;;
20397;SDS011;10358;49.590;11.030;2023-08-07T08:13:12;8.77;;;3.43;;
20397;SDS011;10358;49.590;11.030;2023-08-07T08:15:39;9.97;;;3.20;;
20397;SDS011;10358;49.590;11.030;2023-08-07T08:18:04;9.63;;;3.53;;
20397;SDS011;10358;49.590;11.030;2023-08-07T08:20:30;11.67;;;3.87;;
20397;SDS011;10358;49.590;11.030;2023-08-07T08:22:56;13.13;;;3.50;;
20397;SDS011;10358;49.590;11.030;2023-08-07T08:25:22;9.53;;;3.80;;
20397;SDS011;10358;49.590;11.030;2023-08-07T08:27:47;10.57;;;3.90;;
20397;SDS011;10358;49.590;11.030;2023-08-07T08:30:14;11.73;;;3.70;;
20397;SDS011;10358;49.590;11.030;2023-08-07T08:32:40;12.23;;;3.87;;
20397;SDS011;10358;49.590;11.030;2023-08-07T08:35:06;9.50;;;3.83;;
20397;SDS011;10358;49.590;11.030;2023-08-07T08:37:31;8.93;;;3.87;;
20397;SDS011;10358;49.590;11.030;2023-08-07T08:39:57;11.57;;;4.20;;
20397;SDS011;10358;49.590;11.030;2023-08-07T08:42:23;8.00;;;3.93;;
20397;SDS011;10358;49.590;11.030;2023-08-07T08:44:52;12.13;;;4.70;;
20397;SDS011;10358;49.590;11.030;2023-08-07T08:47:20;13.30;;;3.70;;
20397;SDS011;10358;49.590;11.030;2023-08-07T08:49:47;10.40;;;3.73;;
20397;SDS011;10358;49.590;11.030;2023-08-07T08:52:19;10.43;;;3.77;;
20397;SDS011;10358;49.590;11.030;2023-08-07T08:54:46;7.13;;;3.67;;
20397;SDS011;10358;49.590;11.030;2023-08-07T08:57:13;10.30;;;4.47;;
20397;SDS011;10358;49.590;11.030;2023-08-07T08:59:40;13.63;;;3.70;;
20397;SDS011;10358;49.590;11.030;2023-08-07T09:02:06;11.27;;;3.60;;
20397;SDS011;10358;49.590;11.030;2023-08-07T09:04:33;10.00;;;4.30;;
20397;SDS011;10358;49.590;11.030;2023-08-07T09:06:58;8.17;;;3.43;;
20397;SDS011;10358;49.590;11.030;2023-08-07T09:09:25;9.73;;;3.97;;
20397;SDS011;10358;49.590;11.030;2023-08-07T09:11:53;10.07;;;3.70;;
20397;SDS011;10358;49.590;11.030;2023-08-07T09:14:22;5.87;;;3.50;;
20397;SDS011;10358;49.590;11.030;2023-08-07T09:16:50;8.93;;;3.43;;
20397;SDS011;10358;49.590;11.030;2023-08-07T09:19:16;6.30;;;2.93;;
20397;SDS011;10358;49.590;11.030;2023-08-07T09:21:42;10.33;;;3.43;;
20397;SDS011;10358;49.590;11.030;2023-08-07T09:24:07;8.63;;;3.03;;
20397;SDS011;10358;49.590;11.030;2023-08-07T09:26:33;7.93;;;3.00;;
20397;SDS011;10358;49.590;11.030;2023-08-07T09:28:59;7.73;;;3.50;;
20397;SDS011;10358;49.590;11.030;2023-08-07T09:31:24;11.07;;;3.57;;
20397;SDS011;10358;49.590;11.030;2023-08-07T09:33:51;8.90;;;3.43;;
20397;SDS011;10358;49.590;11.030;2023-08-07T09:36:17;5.20;;;2.67;;
20397;SDS011;10358;49.590;11.030;2023-08-07T09:38:43;6.80;;;3.10;;
20397;SDS011;10358;49.590;11.030;2023-08-07T09:41:15;8.20;;;2.70;;
20397;SDS011;10358;49.590;11.030;2023-08-07T09:43:43;7.63;;;3.30;;
20397;SDS011;10358;49.590;11.030;2023-08-07T09:46:08;6.83;;;2.90;;
20397;SDS011;10358;49.590;11.030;2023-08-07T09:48:41;10.47;;;3.00;;
20397;SDS011;10358;49.590;11.030;2023-08-07T09:51:08;5.87;;;2.90;;
20397;SDS011;10358;49.590;11.030;2023-08-07T09:53:33;7.07;;;2.83;;
20397;SDS011;10358;49.590;11.030;2023-08-07T09:55:59;8.37;;;3.30;;
20397;SDS011;10358;49.590;11.030;2023-08-07T09:58:25;4.53;;;2.70;;
20397;SDS011;10358;49.590;11.030;2023-08-07T10:00:51;7.33;;;2.70;;
20397;SDS011;10358;49.590;11.030;2023-08-07T10:03:24;5.57;;;3.07;;
20397;SDS011;10358;49.590;11.030;2023-08-07T10:05:53;5.43;;;2.70;;
20397;SDS011;10358;49.590;11.030;2023-08-07T10:08:20;6.47;;;2.57;;
20397;SDS011;10358;49.590;11.030;2023-08-07T10:10:47;7.10;;;3.07;;
20397;SDS011;10358;49.590;11.030;2023-08-07T10:13:13;5.07;;;2.33;;
20397;SDS011;10358;49.590;11.030;2023-08-07T10:15:39;5.03;;;2.70;;
20397;SDS011;10358;49.590;11.030;2023-08-07T10:18:07;6.07;;;2.80;;
20397;SDS011;10358;49.590;11.030;2023-08-07T10:20:33;6.90;;;3.07;;
20397;SDS011;10358;49.590;11.030;2023-08-07T10:23:09;6.63;;;2.63;;
20397;SDS011;10358;49.590;11.030;2023-08-07T10:25:37;6.37;;;2.67;;
20397;SDS011;10358;49.590;11.030;2023-08-07T10:28:06;7.70;;;2.67;;
20397;SDS011;10358;49.590;11.030;2023-08-07T10:30:35;5.67;;;2.37;;
20397;SDS011;10358;49.590;11.030;2023-08-07T10:33:02;4.30;;;2.40;;
20397;SDS011;10358;49.590;11.030;2023-08-07T10:35:30;5.40;;;2.50;;
20397;SDS011;10358;49.590;11.030;2023-08-07T10:38:09;7.33;;;2.33;;
20397;SDS011;10358;49.590;11.030;2023-08-07T10:43:23;4.37;;;2.23;;
20397;SDS011;10358;49.590;11.030;2023-08-07T10:45:50;5.37;;;2.30;;
20397;SDS011;10358;49.590;11.030;2023-08-07T10:48:19;5.63;;;2.60;;
20397;SDS011;10358;49.590;11.030;2023-08-07T10:50:49;4.75;;;2.30;;
20397;SDS011;10358;49.590;11.030;2023-08-07T10:53:19;5.93;;;2.30;;
20397;SDS011;10358;49.590;11.030;2023-08-07T10:55:52;4.80;;;2.25;;
20397;SDS011;10358;49.590;11.030;2023-08-07T10:58:26;5.20;;;2.17;;
20397;SDS011;10358;49.590;11.030;2023-08-07T11:03:45;8.70;;;2.40;;
20397;SDS011;10358;49.590;11.030;2023-08-07T11:06:32;6.77;;;2.20;;
20397;SDS011;10358;49.590;11.030;2023-08-07T11:08:59;6.50;;;2.22;;
20397;SDS011;10358;49.590;11.030;2023-08-07T11:11:29;5.27;;;2.20;;
20397;SDS011;10358;49.590;11.030;2023-08-07T11:14:04;7.43;;;2.33;;
20397;SDS011;10358;49.590;11.030;2023-08-07T11:16:43;5.57;;;2.40;;
20397;SDS011;10358;49.590;11.030;2023-08-07T11:19:11;7.05;;;2.55;;
20397;SDS011;10358;49.590;11.030;2023-08-07T11:21:38;8.50;;;2.45;;
20397;SDS011;10358;49.590;11.030;2023-08-07T11:24:05;4.63;;;2.30;;
20397;SDS011;10358;49.590;11.030;2023-08-07T11:26:30;8.53;;;2.60;;
20397;SDS011;10358;49.590;11.030;2023-08-07T11:28:56;6.50;;;2.10;;
20397;SDS011;10358;49.590;11.030;2023-08-07T11:31:22;6.00;;;2.40;;
20397;SDS011;10358;49.590;11.030;2023-08-07T11:33:53;3.97;;;2.10;;
20397;SDS011;10358;49.590;11.030;2023-08-07T11:36:20;9.82;;;2.50;;
20397;SDS011;10358;49.590;11.030;2023-08-07T11:38:47;5.85;;;2.40;;
20397;SDS011;10358;49.590;11.030;2023-08-07T11:41:14;6.72;;;2.13;;
20397;SDS011;10358;49.590;11.030;2023-08-07T11:43:41;4.80;;;2.63;;
20397;SDS011;10358;49.590;11.030;2023-08-07T11:46:08;4.07;;;2.30;;
20397;SDS011;10358;49.590;11.030;2023-08-07T11:48:39;5.53;;;2.30;;
20397;SDS011;10358;49.590;11.030;2023-08-07T11:51:05;8.00;;;2.30;;
20397;SDS011;10358;49.590;11.030;2023-08-07T11:53:32;4.78;;;2.28;;
20397;SDS011;10358;49.590;11.030;2023-08-07T11:56:00;5.23;;;2.27;;
20397;SDS011;10358;49.590;11.030;2023-08-07T11:58:39;5.70;;;1.88;;
20397;SDS011;10358;49.590;11.030;2023-08-07T12:01:16;4.23;;;2.03;;
20397;SDS011;10358;49.590;11.030;2023-08-07T12:03:56;5.68;;;2.10;;
20397;SDS011;10358;49.590;11.030;2023-08-07T12:06:33;5.30;;;2.08;;
20397;SDS011;10358;49.590;11.030;2023-08-07T12:09:00;4.63;;;1.88;;
20397;SDS011;10358;49.590;11.030;2023-08-07T12:11:28;5.90;;;1.80;;
20397;SDS011;10358;49.590;11.030;2023-08-07T12:13:54;4.80;;;1.83;;
20397;SDS011;10358;49.590;11.030;2023-08-07T12:16:20;6.97;;;1.80;;
20397;SDS011;10358;49.590;11.030;2023-08-07T12:18:50;4.15;;;2.30;;
20397;SDS011;10358;49.590;11.030;2023-08-07T12:21:17;5.60;;;1.87;;
20397;SDS011;10358;49.590;11.030;2023-08-07T12:23:45;4.80;;;1.70;;
20397;SDS011;10358;49.590;11.030;2023-08-07T12:26:14;3.13;;;1.80;;
20397;SDS011;10358;49.590;11.030;2023-08-07T12:28:40;4.68;;;2.00;;
20397;SDS011;10358;49.590;11.030;2023-08-07T12:31:05;3.17;;;1.60;;
20397;SDS011;10358;49.590;11.030;2023-08-07T12:33:34;5.27;;;2.03;;
20397;SDS011;10358;49.590;11.030;2023-08-07T12:36:00;4.43;;;1.92;;
20397;SDS011;10358;49.590;11.030;2023-08-07T12:38:26;4.82;;;1.70;;
20397;SDS011;10358;49.590;11.030;2023-08-07T12:40:52;2.63;;;1.63;;
20397;SDS011;10358;49.590;11.030;2023-08-07T12:43:18;4.30;;;1.73;;
20397;SDS011;10358;49.590;11.030;2023-08-07T12:45:44;2.17;;;1.42;;
20397;SDS011;10358;49.590;11.030;2023-08-07T12:48:10;2.78;;;1.90;;
20397;SDS011;10358;49.590;11.030;2023-08-07T12:50:36;4.72;;;1.85;;
20397;SDS011;10358;49.590;11.030;2023-08-07T12:53:01;4.10;;;1.97;;
20397;SDS011;10358;49.590;11.030;2023-08-07T12:55:27;3.07;;;1.73;;
20397;SDS011;10358;49.590;11.030;2023-08-07T12:57:54;3.45;;;1.90;;
20397;SDS011;10358;49.590;11.030;2023-08-07T13:00:20;5.73;;;2.23;;
20397;SDS011;10358;49.590;11.030;2023-08-07T13:02:47;2.55;;;1.70;;
20397;SDS011;10358;49.590;11.030;2023-08-07T13:05:14;3.20;;;1.70;;
20397;SDS011;10358;49.590;11.030;2023-08-07T13:07:42;4.47;;;1.90;;
20397;SDS011;10358;49.590;11.030;2023-08-07T13:10:08;3.88;;;2.00;;
20397;SDS011;10358;49.590;11.030;2023-08-07T13:12:36;2.75;;;1.75;;
20397;SDS011;10358;49.590;11.030;2023-08-07T13:15:03;3.63;;;1.88;;
20397;SDS011;10358;49.590;11.030;2023-08-07T13:17:30;3.90;;;2.08;;
20397;SDS011;10358;49.590;11.030;2023-08-07T13:19:56;3.08;;;1.83;;
20397;SDS011;10358;49.590;11.030;2023-08-07T13:22:22;5.53;;;2.25;;
20397;SDS011;10358;49.590;11.030;2023-08-07T13:24:47;4.37;;;2.17;;
20397;SDS011;10358;49.590;11.030;2023-08-07T13:27:13;5.50;;;2.20;;
20397;SDS011;10358;49.590;11.030;2023-08-07T13:29:38;4.47;;;2.08;;
20397;SDS011;10358;49.590;11.030;2023-08-07T13:32:04;6.00;;;2.28;;
20397;SDS011;10358;49.590;11.030;2023-08-07T13:34:34;3.85;;;1.90;;
20397;SDS011;10358;49.590;11.030;2023-08-07T13:37:01;2.65;;;2.00;;
20397;SDS011;10358;49.590;11.030;2023-08-07T13:39:27;5.40;;;1.92;;
20397;SDS011;10358;49.590;11.030;2023-08-07T13:41:52;5.07;;;2.28;;
20397;SDS011;10358;49.590;11.030;2023-08-07T13:44:18;6.28;;;2.90;;
20397;SDS011;10358;49.590;11.030;2023-08-07T13:46:45;6.13;;;2.07;;
20397;SDS011;10358;49.590;11.030;2023-08-07T13:49:10;4.40;;;1.92;;
20397;SDS011;10358;49.590;11.030;2023-08-07T13:51:36;4.35;;;1.92;;
20397;SDS011;10358;49.590;11.030;2023-08-07T13:54:01;5.88;;;2.20;;
20397;SDS011;10358;49.590;11.030;2023-08-07T13:56:27;4.23;;;1.97;;
20397;SDS011;10358;49.590;11.030;2023-08-07T13:58:53;5.20;;;2.00;;
20397;SDS011;10358;49.590;11.030;2023-08-07T14:01:19;4.20;;;2.03;;
20397;SDS011;10358;49.590;11.030;2023-08-07T14:03:45;2.67;;;1.80;;
20397;SDS011;10358;49.590;11.030;2023-08-07T14:06:10;4.60;;;1.90;;
20397;SDS011;10358;49.590;11.030;2023-08-07T14:08:36;4.35;;;1.70;;
20397;SDS011;10358;49.590;11.030;2023-08-07T14:11:01;3.53;;;1.80;;
20397;SDS011;10358;49.590;11.030;2023-08-07T14:13:28;4.05;;;2.00;;
20397;SDS011;10358;49.590;11.030;2023-08-07T14:15:53;3.03;;;1.90;;
20397;SDS011;10358;49.590;11.030;2023-08-07T14:18:19;4.70;;;2.20;;
20397;SDS011;10358;49.590;11.030;2023-08-07T14:20:44;3.97;;;1.90;;
20397;SDS011;10358;49.590;11.030;2023-08-07T14:23:10;5.18;;;2.22;;
20397;SDS011;10358;49.590;11.030;2023-08-07T14:25:35;7.20;;;2.17;;
20397;SDS011;10358;49.590;11.030;2023-08-07T14:28:01;5.37;;;2.07;;
20397;SDS011;10358;49.590;11.030;2023-08-07T14:30:26;2.28;;;1.73;;
20397;SDS011;10358;49.590;11.030;2023-08-07T14:32:52;5.68;;;2.17;;
20397;SDS011;10358;49.590;11.030;2023-08-07T14:35:17;5.07;;;1.88;;
20397;SDS011;10358;49.590;11.030;2023-08-07T14:37:43;4.88;;;2.08;;
20397;SDS011;10358;49.590;11.030;2023-08-07T14:40:09;5.65;;;2.25;;